createdAt,value
2018-08-31T00:00:08.467Z,47.80
2018-08-31T00:02:42.743Z,49.80
2018-08-31T00:05:49.333Z,50.40
2018-08-31T00:10:35.279Z,51.00
2018-08-31T00:13:02.967Z,50.60
2018-08-31T00:15:30.608Z,50.40
2018-08-31T00:17:58.192Z,50.00
2018-08-31T00:20:25.983Z,50.20
2018-08-31T00:22:53.555Z,50.00
2018-08-31T00:26:06.120Z,48.60
2018-08-31T00:28:45.499Z,48.10
2018-08-31T00:33:32.355Z,50.90
2018-08-31T00:39:16.672Z,51.00
2018-08-31T00:44:00.374Z,50.80
2018-08-31T00:46:27.960Z,51.30
2018-08-31T00:48:55.564Z,50.50
2018-08-31T00:51:23.243Z,50.30
2018-08-31T00:53:50.824Z,50.30
2018-08-31T00:56:18.531Z,50.40
2018-08-31T00:58:46.178Z,50.20
2018-08-31T01:01:13.748Z,50.10
2018-08-31T01:03:41.408Z,50.00
2018-08-31T01:06:09.008Z,50.00
2018-08-31T01:08:36.755Z,50.50
2018-08-31T01:11:04.424Z,49.80
2018-08-31T01:13:32.071Z,49.70
2018-08-31T01:15:59.723Z,49.60
2018-08-31T01:18:27.509Z,49.50
2018-08-31T01:20:55.072Z,49.30
2018-08-31T01:23:22.656Z,49.10
2018-08-31T01:25:50.271Z,49.50
2018-08-31T01:28:17.979Z,49.50
2018-08-31T01:30:45.606Z,49.60
2018-08-31T01:33:13.344Z,49.10
2018-08-31T01:35:40.875Z,49.30
2018-08-31T01:38:08.533Z,49.50
2018-08-31T01:40:36.240Z,49.30
2018-08-31T01:43:03.943Z,49.50
2018-08-31T01:45:31.511Z,49.40
2018-08-31T01:47:59.122Z,49.30
2018-08-31T01:50:26.717Z,49.40
2018-08-31T01:52:54.311Z,49.50
2018-08-31T01:55:27.443Z,49.40
2018-08-31T01:57:55.051Z,49.30
2018-08-31T02:00:22.694Z,49.30
2018-08-31T02:02:50.300Z,49.50
2018-08-31T02:05:17.935Z,49.50
2018-08-31T02:07:45.527Z,48.40
2018-08-31T02:10:13.242Z,49.20
2018-08-31T02:12:40.883Z,47.50
2018-08-31T02:15:08.527Z,49.70
2018-08-31T02:17:36.126Z,49.90
2018-08-31T02:20:03.748Z,49.20
2018-08-31T02:22:31.312Z,48.20
2018-08-31T02:24:58.888Z,50.10
2018-08-31T02:27:26.480Z,50.20
2018-08-31T02:29:54.075Z,49.90
2018-08-31T02:32:21.679Z,49.40
2018-08-31T02:34:49.276Z,45.20
2018-08-31T02:37:16.856Z,49.60
2018-08-31T02:39:44.492Z,49.50
2018-08-31T02:42:12.186Z,49.80
2018-08-31T02:44:39.736Z,49.20
2018-08-31T02:47:07.365Z,49.20
2018-08-31T02:49:34.942Z,49.00
2018-08-31T02:52:02.556Z,49.30
2018-08-31T02:54:30.246Z,49.40
2018-08-31T02:56:57.870Z,49.30
2018-08-31T02:59:25.521Z,49.50
2018-08-31T03:01:53.119Z,49.40
2018-08-31T03:04:20.783Z,49.10
2018-08-31T03:06:48.556Z,49.20
2018-08-31T03:09:16.111Z,49.80
2018-08-31T03:11:43.853Z,49.60
2018-08-31T03:14:11.452Z,49.70
2018-08-31T03:16:39.092Z,49.30
2018-08-31T03:19:06.704Z,48.50
2018-08-31T03:21:34.278Z,49.10
2018-08-31T03:24:01.880Z,49.30
2018-08-31T03:26:29.455Z,49.30
2018-08-31T03:28:57.056Z,49.60
2018-08-31T03:31:24.626Z,49.60
2018-08-31T03:33:52.235Z,49.40
2018-08-31T03:36:19.784Z,49.20
2018-08-31T03:38:47.368Z,49.30
2018-08-31T03:41:15.024Z,48.70
2018-08-31T03:43:42.635Z,48.00
2018-08-31T03:46:10.208Z,44.90
2018-08-31T03:48:38.141Z,44.80
2018-08-31T03:51:05.503Z,47.90
2018-08-31T03:53:33.135Z,47.20
2018-08-31T03:56:00.696Z,48.30
2018-08-31T03:58:28.274Z,48.70
2018-08-31T04:00:55.936Z,49.00
2018-08-31T04:03:23.536Z,51.40
2018-08-31T04:05:51.375Z,53.30
2018-08-31T04:08:18.971Z,53.20
2018-08-31T04:10:46.671Z,49.80
2018-08-31T04:13:14.298Z,47.10
2018-08-31T04:15:41.904Z,47.00
2018-08-31T04:18:09.655Z,51.20
2018-08-31T04:20:37.319Z,51.00
2018-08-31T04:23:05.174Z,50.70
2018-08-31T04:25:32.756Z,46.90
2018-08-31T04:28:00.375Z,45.70
2018-08-31T04:30:28.053Z,45.60
2018-08-31T04:32:55.652Z,46.40
2018-08-31T04:35:23.267Z,47.80
2018-08-31T04:37:50.923Z,48.80
2018-08-31T04:40:18.595Z,49.50
2018-08-31T04:42:46.228Z,51.40
2018-08-31T04:45:13.816Z,51.20
2018-08-31T04:47:41.413Z,49.90
2018-08-31T04:50:09.047Z,50.70
2018-08-31T04:52:36.649Z,48.40
2018-08-31T04:55:04.303Z,45.80
2018-08-31T04:57:31.923Z,47.20
2018-08-31T04:59:59.504Z,47.40
2018-08-31T05:02:27.080Z,52.40
2018-08-31T05:04:54.772Z,49.70
2018-08-31T05:07:22.351Z,51.10
2018-08-31T05:09:49.976Z,49.80
2018-08-31T05:12:17.552Z,50.20
2018-08-31T05:14:45.126Z,49.60
2018-08-31T05:17:12.803Z,49.50
2018-08-31T05:19:40.388Z,49.80
2018-08-31T05:22:07.979Z,49.40
2018-08-31T05:24:35.592Z,46.60
2018-08-31T05:27:03.168Z,48.50
2018-08-31T05:29:30.887Z,49.70
2018-08-31T05:31:58.481Z,49.20
2018-08-31T05:34:26.136Z,48.60
2018-08-31T05:36:53.739Z,48.00
2018-08-31T05:39:21.331Z,48.40
2018-08-31T05:41:48.923Z,49.50
2018-08-31T05:44:16.502Z,48.20
2018-08-31T05:46:44.161Z,49.40
2018-08-31T05:49:11.745Z,48.80
2018-08-31T05:51:39.352Z,45.20
2018-08-31T05:54:07.204Z,45.50
2018-08-31T05:56:34.944Z,47.40
2018-08-31T05:59:02.516Z,50.70
2018-08-31T06:01:30.170Z,51.40
2018-08-31T06:03:57.752Z,50.00
2018-08-31T06:06:25.360Z,50.20
2018-08-31T06:08:53.030Z,49.30
2018-08-31T06:11:20.620Z,49.30
2018-08-31T06:13:48.191Z,48.20
2018-08-31T06:16:15.896Z,48.50
2018-08-31T06:18:43.475Z,48.90
2018-08-31T06:21:11.311Z,48.50
2018-08-31T06:23:38.856Z,48.10
2018-08-31T06:26:06.816Z,48.00
2018-08-31T06:28:34.435Z,48.20
2018-08-31T06:31:02.067Z,48.20
2018-08-31T06:33:29.655Z,48.10
2018-08-31T06:35:57.247Z,47.90
2018-08-31T06:38:24.854Z,47.60
2018-08-31T06:40:52.475Z,47.50
2018-08-31T06:43:20.155Z,47.20
2018-08-31T06:45:47.748Z,47.70
2018-08-31T06:48:15.356Z,47.10
2018-08-31T06:50:43.139Z,46.30
2018-08-31T06:53:10.720Z,46.70
2018-08-31T06:55:38.476Z,48.10
2018-08-31T06:58:06.069Z,46.90
2018-08-31T07:00:33.663Z,47.50
2018-08-31T07:03:01.331Z,48.10
2018-08-31T07:05:28.968Z,48.70
2018-08-31T07:07:56.735Z,48.30
2018-08-31T07:10:24.352Z,48.20
2018-08-31T07:12:51.935Z,48.00
2018-08-31T07:15:20.140Z,47.70
2018-08-31T07:17:47.823Z,47.60
2018-08-31T07:20:15.392Z,47.60
2018-08-31T07:22:42.995Z,47.10
2018-08-31T07:25:10.595Z,47.70
2018-08-31T07:27:38.351Z,47.80
2018-08-31T07:30:06.783Z,48.30
2018-08-31T07:32:34.467Z,48.80
2018-08-31T07:35:02.081Z,48.70
2018-08-31T07:37:29.675Z,48.50
2018-08-31T07:39:57.275Z,47.40
2018-08-31T07:42:24.852Z,47.80
2018-08-31T07:44:52.443Z,46.40
2018-08-31T07:47:20.048Z,47.10
2018-08-31T07:49:47.648Z,48.40
2018-08-31T07:52:15.260Z,48.60
2018-08-31T07:54:43.003Z,50.30
2018-08-31T07:57:10.691Z,51.20
2018-08-31T07:59:38.302Z,50.50
2018-08-31T08:02:05.915Z,51.40
2018-08-31T08:04:33.531Z,51.00
2018-08-31T08:07:01.132Z,55.10
2018-08-31T08:09:28.715Z,55.20
2018-08-31T08:11:56.369Z,55.10
2018-08-31T08:14:23.979Z,55.90
2018-08-31T08:16:51.543Z,58.20
2018-08-31T08:19:19.155Z,59.50
2018-08-31T08:21:46.831Z,60.20
2018-08-31T08:24:14.431Z,61.70
2018-08-31T08:26:42.018Z,63.50
2018-08-31T08:29:09.595Z,62.10
2018-08-31T08:31:37.238Z,58.70
2018-08-31T08:34:05.211Z,60.00
2018-08-31T08:36:32.852Z,61.90
2018-08-31T08:39:00.541Z,62.10
2018-08-31T08:41:28.151Z,63.00
2018-08-31T08:43:55.743Z,63.40
2018-08-31T08:46:23.407Z,64.10
2018-08-31T08:48:51.044Z,65.30
2018-08-31T08:51:18.655Z,66.80
2018-08-31T08:53:46.285Z,66.70
2018-08-31T08:56:13.875Z,66.10
2018-08-31T08:58:41.473Z,67.70
2018-08-31T09:01:09.096Z,69.30
2018-08-31T09:03:36.683Z,68.50
2018-08-31T09:06:04.324Z,70.00
2018-08-31T09:08:31.963Z,69.50
2018-08-31T09:10:59.703Z,69.70
2018-08-31T09:13:27.313Z,70.70
2018-08-31T09:15:55.040Z,69.70
2018-08-31T09:18:25.962Z,68.20
2018-08-31T09:20:54.047Z,70.40
2018-08-31T09:23:21.651Z,69.70
2018-08-31T09:25:49.310Z,66.70
2018-08-31T09:28:16.952Z,64.20
2018-08-31T09:30:45.718Z,63.00
2018-08-31T09:33:15.350Z,65.50
2018-08-31T09:35:42.984Z,66.50
2018-08-31T09:38:10.703Z,66.70
2018-08-31T09:40:38.271Z,64.70
2018-08-31T09:43:05.899Z,62.70
2018-08-31T09:45:33.503Z,63.10
2018-08-31T09:48:01.319Z,63.60
2018-08-31T09:50:28.892Z,63.00
2018-08-31T09:52:56.536Z,61.20
2018-08-31T09:55:24.195Z,60.30
2018-08-31T09:57:51.788Z,59.00
2018-08-31T10:00:25.050Z,58.30
2018-08-31T10:02:58.344Z,57.30
2018-08-31T10:05:26.068Z,58.40
2018-08-31T10:07:53.658Z,60.70
2018-08-31T10:10:21.369Z,61.00
2018-08-31T10:12:48.943Z,59.00
2018-08-31T10:15:16.540Z,57.80
2018-08-31T10:17:44.145Z,57.00
2018-08-31T10:20:11.755Z,56.80
2018-08-31T10:22:39.412Z,56.20
2018-08-31T10:25:07.200Z,55.60
2018-08-31T10:27:34.817Z,55.90
2018-08-31T10:30:02.495Z,56.00
2018-08-31T10:32:30.136Z,56.00
2018-08-31T10:34:57.744Z,55.90
2018-08-31T10:37:25.347Z,58.30
2018-08-31T10:39:52.922Z,59.20
2018-08-31T10:42:20.513Z,59.10
2018-08-31T10:44:48.098Z,58.90
2018-08-31T10:47:15.733Z,60.00
2018-08-31T10:49:43.340Z,59.90
2018-08-31T10:52:11.084Z,59.30
2018-08-31T10:54:38.724Z,58.90
2018-08-31T10:57:06.484Z,58.40
2018-08-31T10:59:34.124Z,58.30
2018-08-31T11:02:01.876Z,57.00
2018-08-31T11:04:29.481Z,59.20
2018-08-31T11:06:57.079Z,58.70
2018-08-31T11:09:24.699Z,57.90
2018-08-31T11:11:52.331Z,57.60
2018-08-31T11:14:19.901Z,58.20
2018-08-31T11:16:47.576Z,58.00
2018-08-31T11:19:15.183Z,58.10
2018-08-31T11:21:42.812Z,57.90
2018-08-31T11:24:10.496Z,57.70
2018-08-31T11:26:38.213Z,57.40
2018-08-31T11:29:05.857Z,57.10
2018-08-31T11:31:33.519Z,57.60
2018-08-31T11:34:01.175Z,58.40
2018-08-31T11:36:28.936Z,57.10
2018-08-31T11:38:56.556Z,56.50
2018-08-31T11:41:24.231Z,56.20
2018-08-31T11:43:51.826Z,56.50
2018-08-31T11:46:19.496Z,58.50
2018-08-31T11:48:47.134Z,57.30
2018-08-31T11:51:14.930Z,58.10
2018-08-31T11:53:42.538Z,59.00
2018-08-31T11:56:10.324Z,58.00
2018-08-31T11:58:37.938Z,57.50
2018-08-31T12:01:06.697Z,60.20
2018-08-31T12:03:34.243Z,60.30
2018-08-31T12:06:01.965Z,59.40
2018-08-31T12:08:29.545Z,58.70
2018-08-31T12:10:57.183Z,57.70
2018-08-31T12:13:24.791Z,57.70
2018-08-31T12:15:52.571Z,58.70
2018-08-31T12:18:20.174Z,60.40
2018-08-31T12:20:47.805Z,61.00
2018-08-31T12:23:15.390Z,60.50
2018-08-31T12:25:43.129Z,62.60
2018-08-31T12:28:10.836Z,63.10
2018-08-31T12:30:38.488Z,61.00
2018-08-31T12:33:06.384Z,60.80
2018-08-31T12:35:34.167Z,62.30
2018-08-31T12:38:01.931Z,65.00
2018-08-31T12:40:29.559Z,62.70
2018-08-31T12:42:57.255Z,61.60
2018-08-31T12:45:24.831Z,62.20
2018-08-31T12:47:52.455Z,63.10
2018-08-31T12:50:20.080Z,64.50
2018-08-31T12:52:47.650Z,63.70
2018-08-31T12:55:15.256Z,61.30
2018-08-31T12:57:42.872Z,61.80
2018-08-31T13:00:10.528Z,61.40
2018-08-31T13:02:38.152Z,61.60
2018-08-31T13:05:06.265Z,63.30
2018-08-31T13:07:33.907Z,61.60
2018-08-31T13:10:01.581Z,60.10
2018-08-31T13:12:29.817Z,60.20
2018-08-31T13:14:57.423Z,59.10
2018-08-31T13:17:25.132Z,59.40
2018-08-31T13:19:52.794Z,60.20
2018-08-31T13:22:20.412Z,59.60
2018-08-31T13:24:48.038Z,58.60
2018-08-31T13:27:15.634Z,57.70
2018-08-31T13:29:43.349Z,57.40
2018-08-31T13:32:11.041Z,57.00
2018-08-31T13:34:38.639Z,56.70
2018-08-31T13:37:06.455Z,56.40
2018-08-31T13:39:34.407Z,56.30
2018-08-31T13:42:02.254Z,55.90
2018-08-31T13:44:29.864Z,56.30
2018-08-31T13:46:57.589Z,57.40
2018-08-31T13:49:25.211Z,58.10
2018-08-31T13:51:52.837Z,57.20
2018-08-31T13:54:20.463Z,56.30
2018-08-31T13:56:48.066Z,55.90
2018-08-31T13:59:15.644Z,56.00
2018-08-31T14:01:43.262Z,56.40
2018-08-31T14:04:10.984Z,56.00
2018-08-31T14:06:38.585Z,55.80
2018-08-31T14:09:06.972Z,55.50
2018-08-31T14:11:34.895Z,55.20
2018-08-31T14:14:02.601Z,55.10
2018-08-31T14:16:30.252Z,55.30
2018-08-31T14:18:57.863Z,55.10
2018-08-31T14:21:25.527Z,55.10
2018-08-31T14:23:53.143Z,55.20
2018-08-31T14:26:20.783Z,55.20
2018-08-31T14:28:48.396Z,55.00
2018-08-31T14:31:16.024Z,54.80
2018-08-31T14:33:43.725Z,54.60
2018-08-31T14:36:11.371Z,55.80
2018-08-31T14:38:38.978Z,56.10
2018-08-31T14:41:06.595Z,55.40
2018-08-31T14:43:34.193Z,53.80
2018-08-31T14:46:01.776Z,55.40
2018-08-31T14:48:29.464Z,58.00
2018-08-31T14:50:57.064Z,61.70
2018-08-31T14:53:24.682Z,63.00
2018-08-31T14:55:52.264Z,63.00
2018-08-31T14:58:19.961Z,63.40
2018-08-31T15:00:47.644Z,64.00
2018-08-31T15:03:15.432Z,66.10
2018-08-31T15:05:43.092Z,64.00
2018-08-31T15:08:10.794Z,61.90
2018-08-31T15:10:38.412Z,60.80
2018-08-31T15:13:06.096Z,58.10
2018-08-31T15:15:33.716Z,58.60
2018-08-31T15:18:01.331Z,58.40
2018-08-31T15:20:28.972Z,57.90
2018-08-31T15:22:56.652Z,57.20
2018-08-31T15:25:24.385Z,57.00
2018-08-31T15:27:52.232Z,56.70
2018-08-31T15:30:19.850Z,56.10
2018-08-31T15:32:47.535Z,56.40
2018-08-31T15:35:15.256Z,55.00
2018-08-31T15:37:42.939Z,56.50
2018-08-31T15:40:10.618Z,56.70
2018-08-31T15:42:38.363Z,59.00
2018-08-31T15:45:06.467Z,60.80
2018-08-31T15:47:34.075Z,61.20
2018-08-31T15:50:01.801Z,60.00
2018-08-31T15:52:29.539Z,58.60
2018-08-31T15:54:57.210Z,58.10
2018-08-31T15:57:24.874Z,57.40
2018-08-31T15:59:52.512Z,58.10
2018-08-31T16:02:20.275Z,58.40
2018-08-31T16:04:48.012Z,58.70
2018-08-31T16:07:15.608Z,58.10
2018-08-31T16:09:43.216Z,61.70
2018-08-31T16:12:10.956Z,63.00
2018-08-31T16:14:38.555Z,62.10
2018-08-31T16:17:06.244Z,59.00
2018-08-31T16:19:33.830Z,60.40
2018-08-31T16:22:01.557Z,60.30
2018-08-31T16:24:29.904Z,59.50
2018-08-31T16:26:57.618Z,59.20
2018-08-31T16:29:25.207Z,59.20
2018-08-31T16:31:52.941Z,58.80
2018-08-31T16:34:20.594Z,58.20
2018-08-31T16:36:48.303Z,60.00
2018-08-31T16:39:15.922Z,63.40
2018-08-31T16:41:43.607Z,62.90
2018-08-31T16:44:11.200Z,62.90
2018-08-31T16:46:38.798Z,64.90
2018-08-31T16:49:06.466Z,65.60
2018-08-31T16:51:34.121Z,66.20
2018-08-31T16:54:01.770Z,66.40
2018-08-31T16:56:29.370Z,65.30
2018-08-31T16:58:57.076Z,66.90
2018-08-31T17:01:24.680Z,68.60
2018-08-31T17:03:52.388Z,69.60
2018-08-31T17:06:20.220Z,71.20
2018-08-31T17:08:47.859Z,71.60
2018-08-31T17:11:15.456Z,74.00
2018-08-31T17:13:43.060Z,74.90
2018-08-31T17:16:10.742Z,75.20
2018-08-31T17:18:38.360Z,76.70
2018-08-31T17:21:06.032Z,76.40
2018-08-31T17:23:33.789Z,75.90
2018-08-31T17:26:01.426Z,76.70
2018-08-31T17:28:35.657Z,76.70
2018-08-31T17:31:08.827Z,76.30
2018-08-31T17:33:42.460Z,77.10
2018-08-31T17:36:15.826Z,77.80
2018-08-31T17:38:43.513Z,78.90
2018-08-31T17:41:11.135Z,79.30
2018-08-31T17:43:38.747Z,79.40
2018-08-31T17:46:08.776Z,78.70
2018-08-31T17:48:36.494Z,81.00
2018-08-31T17:51:04.137Z,80.80
2018-08-31T17:53:31.770Z,79.80
2018-08-31T17:55:59.464Z,82.20
2018-08-31T17:58:27.109Z,81.10
2018-08-31T18:00:54.736Z,76.20
2018-08-31T18:03:22.338Z,73.40
2018-08-31T18:05:50.042Z,69.80
2018-08-31T18:08:17.754Z,67.60
2018-08-31T18:10:45.385Z,66.10
2018-08-31T18:13:12.961Z,64.90
2018-08-31T18:15:40.620Z,64.60
2018-08-31T18:18:08.220Z,63.70
2018-08-31T18:20:35.866Z,63.10
2018-08-31T18:23:03.445Z,62.40
2018-08-31T18:25:31.068Z,60.60
2018-08-31T18:27:58.795Z,61.80
2018-08-31T18:30:26.431Z,61.70
2018-08-31T18:32:54.133Z,61.30
2018-08-31T18:35:21.783Z,60.70
2018-08-31T18:37:49.490Z,60.00
2018-08-31T18:40:17.123Z,60.20
2018-08-31T18:42:44.758Z,60.90
2018-08-31T18:45:12.444Z,61.50
2018-08-31T18:47:40.123Z,61.60
2018-08-31T18:50:07.792Z,61.00
2018-08-31T18:52:35.568Z,60.20
2018-08-31T18:55:03.513Z,59.80
2018-08-31T18:57:31.211Z,59.40
2018-08-31T18:59:58.921Z,59.20
2018-08-31T19:02:26.530Z,59.30
2018-08-31T19:04:54.186Z,59.10
2018-08-31T19:07:21.885Z,59.10
2018-08-31T19:09:49.506Z,58.90
2018-08-31T19:12:17.299Z,58.70
2018-08-31T19:14:44.972Z,58.70
2018-08-31T19:17:12.799Z,58.60
2018-08-31T19:19:40.415Z,58.80
2018-08-31T19:22:08.036Z,58.60
2018-08-31T19:24:35.784Z,58.70
2018-08-31T19:27:03.620Z,58.20
2018-08-31T19:29:31.304Z,58.10
2018-08-31T19:31:59.051Z,57.90
2018-08-31T19:34:26.758Z,57.90
2018-08-31T19:36:54.640Z,57.70
2018-08-31T19:39:22.484Z,57.80
2018-08-31T19:41:50.278Z,57.90
2018-08-31T19:44:17.889Z,57.80
2018-08-31T19:46:45.651Z,57.70
2018-08-31T19:49:13.278Z,57.50
2018-08-31T19:51:40.966Z,57.60
2018-08-31T19:54:08.878Z,57.60
2018-08-31T19:56:38.543Z,57.90
2018-08-31T19:59:07.220Z,57.80
2018-08-31T20:01:34.892Z,57.70
2018-08-31T20:04:02.510Z,58.00
2018-08-31T20:06:30.226Z,57.30
2018-08-31T20:08:57.843Z,57.30
2018-08-31T20:11:25.452Z,57.10
2018-08-31T20:13:53.110Z,56.90
2018-08-31T20:16:20.801Z,56.60
2018-08-31T20:18:48.469Z,56.50
2018-08-31T20:21:16.107Z,56.30
2018-08-31T20:23:43.776Z,56.20
2018-08-31T20:26:11.391Z,55.90
2018-08-31T20:28:39.022Z,55.90
2018-08-31T20:31:06.757Z,56.40
2018-08-31T20:33:34.328Z,57.10
2018-08-31T20:36:01.948Z,56.80
2018-08-31T20:38:29.600Z,56.60
2018-08-31T20:40:57.513Z,56.40
2018-08-31T20:43:25.129Z,56.30
2018-08-31T20:45:52.902Z,56.60
2018-08-31T20:48:20.520Z,56.10
2018-08-31T20:50:48.259Z,56.50
2018-08-31T20:53:16.229Z,56.60
2018-08-31T20:55:43.917Z,56.70
2018-08-31T20:58:11.596Z,57.10
2018-08-31T21:00:39.268Z,57.30
2018-08-31T21:03:07.234Z,57.10
2018-08-31T21:05:35.041Z,57.40
2018-08-31T21:08:02.725Z,57.30
2018-08-31T21:10:30.457Z,57.00
2018-08-31T21:12:58.047Z,56.80
2018-08-31T21:15:25.736Z,56.90
2018-08-31T21:17:53.420Z,56.50
2018-08-31T21:20:21.214Z,56.80
2018-08-31T21:22:48.830Z,57.90
2018-08-31T21:25:16.443Z,57.60
2018-08-31T21:27:44.092Z,57.20
2018-08-31T21:30:11.703Z,58.70
2018-08-31T21:32:39.328Z,59.00
2018-08-31T21:35:06.976Z,59.50
2018-08-31T21:37:34.615Z,59.90
2018-08-31T21:40:02.315Z,61.10
2018-08-31T21:42:29.989Z,62.90
2018-08-31T21:44:57.587Z,64.60
2018-08-31T21:47:25.260Z,66.90
2018-08-31T21:49:52.888Z,68.20
2018-08-31T21:52:20.468Z,71.90
2018-08-31T21:54:48.224Z,72.70
2018-08-31T21:57:15.826Z,73.00
2018-08-31T21:59:43.493Z,73.00
2018-08-31T22:02:11.091Z,74.10
2018-08-31T22:04:38.790Z,71.00
2018-08-31T22:07:06.440Z,71.80
2018-08-31T22:09:34.075Z,73.30
2018-08-31T22:12:01.689Z,76.00
2018-08-31T22:14:29.367Z,77.00
2018-08-31T22:16:56.958Z,79.00
2018-08-31T22:19:24.708Z,80.40
2018-08-31T22:21:52.317Z,81.50
2018-08-31T22:24:19.972Z,83.20
2018-08-31T22:26:47.616Z,83.70
2018-08-31T22:29:15.188Z,78.70
2018-08-31T22:31:42.820Z,73.30
2018-08-31T22:34:10.442Z,69.70
2018-08-31T22:36:38.095Z,66.80
2018-08-31T22:39:07.456Z,65.60
2018-08-31T22:41:35.136Z,64.80
2018-08-31T22:44:02.799Z,65.30
2018-08-31T22:46:30.594Z,65.80
2018-08-31T22:48:58.212Z,64.40
2018-08-31T22:51:25.811Z,64.90
2018-08-31T22:53:53.407Z,65.20
2018-08-31T22:56:21.142Z,64.30
2018-08-31T22:58:48.709Z,62.90
2018-08-31T23:01:16.411Z,63.50
2018-08-31T23:03:44.357Z,62.00
2018-08-31T23:06:12.368Z,65.50
2018-08-31T23:08:40.001Z,65.00
2018-08-31T23:11:09.639Z,62.90
2018-08-31T23:13:38.455Z,62.70
2018-08-31T23:16:06.431Z,62.60
2018-08-31T23:18:34.117Z,62.00
2018-08-31T23:21:01.717Z,61.40
2018-08-31T23:23:34.815Z,61.00
2018-08-31T23:26:02.413Z,60.70
2018-08-31T23:28:30.015Z,60.50
2018-08-31T23:30:57.607Z,58.40
2018-08-31T23:33:25.287Z,59.00
2018-08-31T23:35:52.895Z,59.70
2018-08-31T23:38:20.571Z,61.00
2018-08-31T23:40:48.244Z,64.50
2018-08-31T23:43:15.855Z,68.00
2018-08-31T23:45:43.439Z,72.60
2018-08-31T23:48:11.032Z,70.00
2018-08-31T23:50:38.596Z,68.30
2018-08-31T23:53:06.200Z,65.50
2018-08-31T23:55:33.738Z,66.80
2018-08-31T23:58:01.351Z,68.00
